neil on the web!

ADDS Results

0006 UTC 22 October 2020

EGJB 212350Z 22014KT 9999 FEW012 13/12 Q1007
EGJB 212250Z 22015KT 9999 FEW018 13/11 Q1007
TAF EGJB 212256Z 2200/2209 22013KT 9999 FEW012
PROB30
TEMPO 2202/2204 8000 SHRA BKN012
PROB30
TEMPO 2204/2209 5000 SHRA BKN008CB
EGJJ 212350Z AUTO 20013KT 9999 SCT009/// BKN010/// 13/12 Q1008
EGJJ 212320Z AUTO 21010KT 9999 FEW011/// 13/12 Q1007
EGJJ 212250Z AUTO 22011KT 9999 NCD 13/11 Q1007
EGJJ 212220Z AUTO 22012KT 9999 NCD 13/11 Q1007
TAF EGJJ 212256Z 2200/2209 22011KT 9999 FEW012
PROB30
TEMPO 2202/2205 8000 SHRA BKN012
PROB30
TEMPO 2205/2209 5000 SHRA BKN008CB
EGKK 212350Z 21010KT 9999 SCT042 13/11 Q1005
EGKK 212320Z 21007KT 9999 FEW040 13/10 Q1005
EGKK 212250Z 19007KT CAVOK 13/10 Q1004
EGKK 212220Z 20007KT 170V240 9999 FEW023 13/10 Q1004
TAF EGKK 212255Z 2200/2306 22008KT 9999 FEW030
PROB30
TEMPO 2203/2210 7000 SHRA
TEMPO 2210/2306 7000 SHRA
PROB30
TEMPO 2210/2224 4000 +SHRA BKN014CB
PROB30
TEMPO 2300/2306 4000 +SHRA BR BKN006
EGSS 212350Z AUTO 20014KT 9999 BKN018 12/10 Q1004
EGSS 212320Z AUTO 22012KT 9999 SCT018 BKN024 12/10 Q1003
EGSS 212250Z AUTO 21017KT 9999 BKN016 BKN024 13/11 Q1003
EGSS 212220Z AUTO 21014KT 9999 BKN012 BKN022 13/12 Q1003
TAF EGSS 212300Z 2200/2306 22012KT 9999 SCT020
TEMPO 2200/2210 23015G25KT 8000 -RA BKN012
PROB30
TEMPO 2200/2209 4000 RADZ BKN009
TEMPO 2211/2217 6000 SHRA
PROB30
TEMPO 2222/2224 3000 +SHRA BKN014 BKN018CB
PROB30
TEMPO 2300/2306 3000 +SHRA BKN006 BKN014CB
EGGW 212350Z AUTO 20012KT 160V220 9999 BKN012 BKN019 12/10 Q1003
EGGW 212320Z AUTO 21013KT 9999 BKN015 12/10 Q1003
EGGW 212250Z AUTO 21015G25KT 9999 SCT015 BKN022 12/10 Q1002
EGGW 212220Z AUTO 22013KT 9999 BKN015 OVC021 13/11 Q1002
TAF EGGW 212300Z 2200/2224 22011KT 9999 SCT020
TEMPO 2200/2210 23015G25KT 8000 -RA BKN010
PROB30
TEMPO 2200/2209 4000 RADZ BKN007
PROB30
TEMPO 2222/2224 3000 +SHRA BKN012 BKN018CB
EGSH 212350Z AUTO 20010KT 9999 SCT014/// BKN018/// BKN024/// 14/13 Q1002
EGSH 212320Z AUTO 21010KT 180V240 9999 FEW013/// SCT020/// BKN036/// 14/12 Q1002
EGSH 212250Z AUTO 22010KT 9999 BKN013/// BKN017/// 14/13 Q1002
EGSH 212220Z AUTO 21010KT 9999 NCD 14/13 Q1002
TAF EGSH 211953Z 2121/2124 21009KT 9999 FEW025
TEMPO 2121/2124 BKN012
PROB30
TEMPO 2121/2124 6000 RA BKN006
EGLC 212350Z AUTO 20009KT 160V220 9999 FEW027 BKN038 14/10 Q1004
EGLC 212320Z AUTO 21009KT 170V240 9999 BKN024 BKN030 14/10 Q1004
EGLC 212250Z AUTO 22009KT 9999 NCD 14/10 Q1004
EGLC 212220Z AUTO 23014KT 9999 NCD 14/10 Q1004
TAF EGLC 211700Z 2118/2121 24009KT 9999 SCT012
TEMPO 2118/2121 7000 -RA BKN012
PROB30
TEMPO 2118/2121 4000 RADZ BKN009
EGMC 212350Z 20013KT 9999 FEW015 12/11 Q1005
EGMC 212320Z 21013KT 9999 FEW015 12/11 Q1004
EGMC 212250Z 21013KT 9999 FEW015 13/11 Q1004
EGMC 212220Z 21013KT 9999 FEW020 13/12 Q1004
TAF EGMC 212255Z 2200/2209 22009KT 9999 FEW020
PROB30
TEMPO 2200/2206 23015G25KT
EGLL 212350Z AUTO 22009KT 9999 FEW025 13/10 Q1004 NOSIG
EGLL 212320Z AUTO 20009KT 9999 FEW024 BKN034 13/10 Q1004 NOSIG
EGLL 212250Z AUTO 21008KT 9999 SCT022 BKN038 13/10 Q1004 NOSIG
EGLL 212220Z AUTO 22009KT 9999 SCT022 13/10 Q1003 NOSIG
TAF EGLL 212254Z 2200/2306 22010KT 9999 FEW020
PROB30
TEMPO 2210/2215 4000 +SHRA BKN014CB
BECMG 2215/2218 VRB03KT
TEMPO 2220/2306 7000 SHRA
PROB30
TEMPO 2221/2306 4000 +SHRA BR BKN006
TAF EGHI 211658Z 2118/2122 20010KT 9999 SCT010
PROB30
TEMPO 2118/2122 22015G25KT 7000 SHRA BKN010
TAF EGHH 211955Z 2121/2206 22010KT 9999 FEW015
PROB30
TEMPO 2121/2124 23015G25KT 7000 SHRA BKN014
PROB30
TEMPO 2200/2206 23015G25KT
EGCC 212350Z AUTO 25009KT 9999 BKN024 OVC044 11/08 Q1000 NOSIG
EGCC 212320Z AUTO 26011KT 9999 FEW012 OVC021 11/09 Q0999 NOSIG
EGCC 212250Z AUTO 24009KT 9999 -RA BKN012 BKN019 OVC031 11/10 Q0999 TEMPO SCT012
EGCC 212220Z AUTO 22005KT 180V240 9999 SCT025 BKN030 OVC038 11/10 Q0999 NOSIG
TAF EGCC 212255Z 2200/2306 25008KT 9999 SCT015
PROB30
TEMPO 2200/2212 7000 SHRA BKN014
PROB30
TEMPO 2203/2209 28015G25KT
EGNX 212350Z 23009KT 9999 RA SCT028 11/11 Q1000
EGNX 212320Z 24008KT 8000 RA SCT025 BKN040 11/10 Q0999 REDZ
EGNX 212250Z 23008KT 210V300 9999 RADZ FEW023 SCT041 11/10 Q0999 REDZ
EGNX 212220Z 23009KT 8000 RADZ BKN015 11/11 Q0999 REDZ
TAF EGNX 212254Z 2200/2224 24012KT 9999 SCT025
PROB30
TEMPO 2200/2203 6000 SHRA BKN008
EGGP 212350Z 25010KT 9999 FEW016 BKN029 11/08 Q1000
EGGP 212320Z 25011KT 9999 FEW016 BKN024 11/08 Q1000
EGGP 212250Z 26013KT 9999 FEW012 BKN016 11/08 Q0999
EGGP 212220Z 26013KT 9999 BKN012 BKN016 12/09 Q0999
TAF EGGP 212255Z 2200/2224 26010KT 9999 SCT015
PROB40
TEMPO 2200/2212 7000 SHRA BKN014
PROB30
TEMPO 2203/2209 28015G25KT
TAF EGNM 211654Z 2118/2218 25011KT 9999 FEW008 SCT030
TEMPO 2118/2123 6000 RA BKN010
PROB40
TEMPO 2123/2212 8000 -RA BKN012
PROB30
TEMPO 2216/2218 26015G25KT
EGBB 212350Z 22006KT 190V260 9999 FEW006 BKN035 11/10 Q1001
EGBB 212320Z 23004KT 190V270 9999 BKN029 11/10 Q1000 RERA
EGBB 212250Z 26005KT 220V290 3300 RA BKN012 BKN045 11/10 Q1000
EGBB 212220Z 26005KT 220V290 4000 RA SCT004 BKN015 12/12 Q1000 RERA
TAF EGBB 212254Z 2200/2224 24007KT 9999 SCT025
PROB30
TEMPO 2200/2206 6000 SHRA BKN008
EGGD 212350Z 22009KT 3500 -DZ BR SCT002 BKN003 11/11 Q1003
EGGD 212320Z 24008KT 3500 -DZ BR SCT002 BKN003 11/11 Q1003
EGGD 212250Z 23009KT 7000 -RADZ FEW002 BKN015 11/11 Q1002 RERA REDZ
EGGD 212220Z AUTO 23011KT 1500 RADZ BKN001 OVC004 11/11 Q1002
TAF EGGD 212304Z 2200/2224 22006KT 9999 SCT015
TEMPO 2200/2208 6000 -RADZ BKN006
PROB30
TEMPO 2200/2207 1200 RADZ BKN001
PROB30
TEMPO 2221/2224 4000 +SHRA BKN009CB
EGFF 212350Z AUTO 24007KT 9999 BKN012 12/11 Q1003
EGFF 212320Z AUTO 25007KT 9999 NCD 12/11 Q1002
EGFF 212250Z AUTO 26007KT 9999 FEW009 SCT020 12/11 Q1002
EGFF 212220Z AUTO 26006KT 9999 BKN009 BKN018 12/12 Q1002
TAF EGFF 212304Z 2200/2224 28010KT 9999 SCT015
TEMPO 2200/2206 6000 -RADZ BKN008
PROB30
TEMPO 2200/2206 3000 RADZ BKN003
PROB40
TEMPO 2206/2209 7000 SHRA BKN008
PROB30
TEMPO 2222/2224 4000 +SHRA BKN012CB
EGTE 212350Z 18005KT 150V210 9999 FEW020 SCT030 11/10 Q1004
EGTE 212320Z 19006KT 150V220 9999 FEW020 SCT030 12/10 Q1004
EGTE 212250Z 18008KT 140V220 9999 FEW020 SCT030 12/10 Q1003
EGTE 212220Z 20008KT 150V230 9999 FEW025 12/09 Q1003
TAF EGTE 212258Z 2200/2203 21009KT 9999 FEW025
PROB30
TEMPO 2200/2203 7000 SHRA BKN012
EGPF 212350Z AUTO VRB03KT 2500 DZ OVC007 10/09 Q0994
EGPF 212320Z AUTO 05004KT 9999 OVC008 10/09 Q0993
EGPF 212250Z 09005KT 5000 -DZ BKN009 OVC014 10/09 Q0993
EGPF 212220Z AUTO 12005KT 9999 -RA BKN014 OVC027 11/09 Q0993
TAF EGPF 212302Z 2200/2224 29004KT 9999 SCT012 BKN030
TEMPO 2200/2202 7000 -RA BKN010
PROB30
TEMPO 2200/2202 4000 RADZ BKN007
TEMPO 2202/2212 6000 RA BKN010
PROB30
TEMPO 2202/2208 4000 +RA RADZ BKN004
TEMPO 2212/2220 BKN010
PROB30
TEMPO 2212/2219 6000 RADZ BKN007
BECMG 2221/2224 20010KT
EGPH 212350Z 29002KT 9999 BKN031 08/07 Q0994
EGPH 212320Z 24002KT 9999 BKN032 07/06 Q0993
EGPH 212250Z 30003KT CAVOK 08/07 Q0993
EGPH 212220Z 23004KT CAVOK 08/07 Q0993
TAF EGPH 212302Z 2200/2224 24005KT 9999 FEW010 SCT030
PROB30
TEMPO 2200/2203 7000 RA BKN012
TEMPO 2203/2212 6000 RA BKN007
PROB30
TEMPO 2203/2210 3000 +RA RADZ BKN004
BECMG 2206/2209 34010KT
BECMG 2210/2213 VRB03KT
PROB40
TEMPO 2212/2221 6000 RADZ BKN009
BECMG 2218/2221 21010KT
EGPK 212350Z 13005KT 9999 FEW012 SCT044 09/08 Q0993
EGPK 212320Z 15005KT 9999 SCT013 SCT045 10/09 Q0993
EGPK 212250Z 16006KT 9000 FEW008 BKN013 10/09 Q0993
EGPK 212220Z 17008KT 7000 -DZ SCT006 BKN013 10/09 Q0993
TAF EGPK 212302Z 2200/2224 VRB04KT 9999 SCT008 BKN016
TEMPO 2200/2202 7000 -RA BKN012
PROB30
TEMPO 2200/2202 4000 RADZ BKN006
TEMPO 2202/2216 6000 RA BKN012
PROB30
TEMPO 2202/2215 4000 +RA RADZ BKN007
BECMG 2203/2206 29010KT
PROB30
TEMPO 2205/2215 03015G25KT
BECMG 2215/2218 22010KT
EHAM 212355Z 21012KT 9999 FEW012 14/12 Q1005 NOSIG
EHAM 212325Z 21012KT 9999 FEW012 14/12 Q1005 NOSIG
EHAM 212255Z 21012KT 180V240 9999 FEW012 14/12 Q1005 NOSIG
EHAM 212225Z 22012KT 9999 FEW010 14/12 Q1005 NOSIG
TAF EHAM 212303Z 2200/2306 22013KT 9999 SCT022
BECMG 2214/2217 22008KT
PROB40 2303/2306 0700 FG BKN001
LFLS 220000Z AUTO VRB03KT CAVOK 13/08 Q1017
LFLS 212330Z AUTO VRB03KT CAVOK 13/08 Q1017
LFLS 212300Z AUTO VRB03KT CAVOK 14/09 Q1017
LFLS 212230Z AUTO VRB03KT CAVOK 14/09 Q1016
TAF LFLS 211400Z 2115/2215 21010KT CAVOK
PROB30
TEMPO 2115/2117 21013G25KT
BECMG 2122/2201 VRB03KT
TEMPO 2203/2211 BKN050
BECMG 2208/2210 21006KT
LFLL 220000Z 18009KT CAVOK 18/09 Q1015 NOSIG
LFLL 212330Z 11005KT 070V160 CAVOK 18/09 Q1015 NOSIG
LFLL 212300Z 03003KT 340V070 CAVOK 18/09 Q1015 NOSIG
LFLL 212230Z VRB03KT CAVOK 18/09 Q1015 NOSIG
TAF LFLL 212300Z 2200/2306 19008KT CAVOK
PROB40
TEMPO 2210/2213 20020G40KT 3000 SHRA SCT030 SCT050TCU BKN080
TEMPO 2215/2224 5000 -RA FEW050TCU BKN080
PROB40
TEMPO 2300/2306 2500 RA BKN040 SCT050TCU
LFLC 220000Z AUTO VRB04KT CAVOK 16/09 Q1013 NOSIG
LFLC 212330Z AUTO 16006KT 100V210 9999 FEW042 OVC230 16/09 Q1013 NOSIG
LFLC 212300Z AUTO 17008KT 130V200 9999 FEW043 OVC240 17/09 Q1013 TEMPO
17015G28KT
LFLC 212230Z AUTO 17011KT CAVOK 17/09 Q1013
TAF LFLC 212300Z 2200/2224 16012KT CAVOK
TEMPO 2200/2203 BKN040
TEMPO 2209/2214 -SHRA SCT040TCU BKN070
LFRD 220000Z AUTO 19009KT CAVOK 11/11 Q1009 NOSIG
LFRD 212330Z AUTO 18009KT CAVOK 11/10 Q1008 NOSIG
LFRD 212300Z AUTO 18010KT CAVOK 11/11 Q1008 NOSIG
LFRD 212230Z AUTO 19009KT CAVOK 11/11 Q1008 NOSIG
TAF LFRD 212300Z 2200/2224 21010KT 9999 SCT030
PROB40
TEMPO 2203/2207 1000 BR BKN002
PROB30
TEMPO 2203/2218 5000 SHRA SCT015TCU
TAF LFRC 211400Z 2115/2124 23015KT 9999 BKN007 OVC012
TEMPO 2115/2116 23015G28KT 4000 SHRA BKN005TCU
BECMG 2118/2120 SCT020
VHHH 220000Z 35013KT 9999 FEW035 SCT045 23/15 Q1011 NOSIG
VHHH 212330Z 35012KT 9999 FEW035 SCT045 23/15 Q1011 NOSIG
VHHH 212300Z 35009KT 9999 FEW035 SCT045 23/15 Q1010 NOSIG
VHHH 212230Z 36009KT 9999 FEW035 SCT045 23/15 Q1010 NOSIG
TAF VHHH 212300Z 2200/2306 01015KT 9000 FEW040 TX29/2206Z TX27/2306Z TN21/2222Z